AirNav   Everest Fuels
 
 1535 users online  

4MS9 Providence Airpark
Canton, Mississippi, USA

GOING TO CANTON?


FAA INFORMATION EFFECTIVE 07 OCTOBER 2021

Location

FAA Identifier: 4MS9
Lat/Long: 32-39-57.5000N 090-04-03.5000W
32-39.958333N 090-04.058333W
32.6659722,-90.0676389
(estimated)
Elevation: 240 ft. / 73 m (estimated)
Variation: 01E (1995)
From city: 4 miles NW of CANTON, MS
Time zone: UTC -5 (UTC -6 during Standard Time)
Zip code: 39046

Airport Operations

Airport use: Private use. Permission required prior to landing
Activation date: 06/1999
Control tower: no
ARTCC: MEMPHIS CENTER
FSS: GREENWOOD FLIGHT SERVICE STATION
Attendance: MON-SAT DAYLIGHT HOURS
Wind indicator: yes
Segmented circle: no
Lights: FOR LIRL RY 18/36 CALL 601-831-2162.

Airport Communications

WX AWOS-3PT at MBO (14 nm S): 119.125 (601-605-8137)

Nearby radio navigation aids

VOR radial/distance  VOR name  Freq  Var
MHZr008/14.0MAGNOLIA VORTAC113.2001W

Airport Services

Fuel available: 100LL

Runway Information

Runway 18/36

Dimensions: 4000 x 75 ft. / 1219 x 23 m
Surface: asphalt/turf, in fair condition
1500 FT BY 30 FT SECTION OF RWY PAVED ON N END.
Runway edge lights: low intensity
RUNWAY 18  RUNWAY 36
Traffic pattern: leftleft
Obstructions: 50 ft. trees, 525 ft. from runwaynone

Airport Ownership and Management from official FAA records

Ownership: Privately-owned
Owner: PROVIDENCE AIRPARK, LLC
913 PISGAH BOTTON ROAD
CANTON, MS 39046
Phone 601-831-2162
Manager: CHUCK BELL
111 JOHNSTONE DRIVE
MADISON, MS 39110
Phone 601-831-2162

Airport Operational Statistics

Aircraft based on the field: 4
Single engine airplanes: 4
    

Additional Remarks

FOR CD CTC JACKSON APCH AT 601-965-4625, WHEN APCH CLSD CTC MEMPHIS ARTCC AT 901-368-8453/8449.

Instrument Procedures

There are no published instrument procedures at 4MS9.

Some nearby airports with instrument procedures:

KMBO - Bruce Campbell Field Airport (14 nm S)
KJAN - Jackson-Medgar Wiley Evers International Airport (21 nm S)
KHKS - Hawkins Field Airport (21 nm S)
87I - Yazoo County Airport (24 nm NW)
19M - C A Moore Airport (28 nm N)
 
Loc | Ops | Rwys | IFR | FBO | Links
Com | Nav | Svcs | Stats | Notes
Area around 4MS9 (Providence Airpark)
 
Road maps at: MapQuest Bing Google
 
Aerial photo
No photo
 
Sectional chart

 
Airport distance calculator
Flying to Providence Airpark? Find the distance to fly.

From to 4MS9

Sunrise and sunset
Times for 27-Oct-2021
 Local
(UTC-5)
 Zulu
(UTC)
Morning civil twilight06:5011:50
Sunrise07:1512:15
Sunset18:1423:14
Evening civil twilight18:3923:39

Current date and time
Zulu (UTC)  27-Oct-2021 18:31:26
Local (UTC-5)  27-Oct-2021 13:31:26
 
METAR
KMBO 
14nm S 
271015Z AUTO VRB04KT 10SM CLR 16/13 A2986 RMK AO2
KJAN 
21nm S 
271754Z 13014G22KT 10SM FEW048 SCT055 OVC070 23/11 A2972 RMK AO2 SLP062 T02280111 10233 20144 58037
KHKS 
21nm S 
271753Z 13008G18KT 10SM -RA FEW045 FEW070 SCT090 22/13 A2973 RMK AO2 RAB42 SLP059 P0000 60000 T02170133 10233 20156 58035
TAF
KJAN 
21nm S 
271740Z 2718/2818 13013G19KT P6SM SCT060 BKN090 FM272000 13011G18KT P6SM -RA OVC100 FM272300 15017G23KT 6SM TSRA OVC035CB FM280200 15015G22KT 6SM -RA OVC007 FM280500 18010KT P6SM -RA OVC019 FM280900 20006KT P6SM OVC050
KHKS 
21nm S 
271740Z 2718/2818 14012G18KT P6SM OVC060 FM272000 13011G18KT P6SM -RA OVC100 FM272300 15017G23KT 6SM TSRA OVC035CB FM280200 15015G22KT 6SM -RA OVC007 FM280500 18010KT P6SM -RA OVC019 FM280900 20006KT P6SM OVC050
NOTAMs
Click for the latest NOTAMs
NOTAMs are issued by the DoD/FAA and will open in a separate window not controlled by AirNav.

 

 
 

Would you like to see your business listed on this page?

 If your business provides an interesting product or service to pilots, flight crews, aircraft, or users of the Providence Airpark, you should consider listing it here.  To start the listing process, click on the button below
 
Add a business
 

Other Pages about Providence Airpark

Update a link
 
Copyright © AirNav, LLC. All rights reserved. Privacy Policy  Contact